createdAt,value
2023-10-10T00:01:07.292Z,100451.97
2023-10-10T00:03:41.153Z,100445.84
2023-10-10T00:06:09.915Z,100449.28
2023-10-10T00:08:42.212Z,100450.91
2023-10-10T00:11:11.596Z,100442.25
2023-10-10T00:13:44.003Z,100444.78
2023-10-10T00:16:13.115Z,100437.84
2023-10-10T00:18:44.708Z,100442.03
2023-10-10T00:21:18.742Z,100447.06
2023-10-10T00:23:48.089Z,100451.19
2023-10-10T00:26:16.500Z,100445.13
2023-10-10T00:28:55.168Z,100448.47
2023-10-10T00:31:23.615Z,100441.63
2023-10-10T00:33:52.671Z,100436.38
2023-10-10T00:36:29.286Z,100439.00
2023-10-10T00:38:59.551Z,100437.25
2023-10-10T00:41:27.980Z,100432.91
2023-10-10T00:43:57.069Z,100439.72
2023-10-10T00:46:30.215Z,100436.31
2023-10-10T00:49:01.619Z,100444.91
2023-10-10T00:51:34.763Z,100444.91
2023-10-10T00:54:18.362Z,100439.72
2023-10-10T00:56:46.017Z,100443.06
2023-10-10T00:59:17.667Z,100442.09
2023-10-10T01:01:46.787Z,100435.16
2023-10-10T01:04:14.596Z,100434.28
2023-10-10T01:06:42.205Z,100435.03
2023-10-10T01:09:21.867Z,100432.38
2023-10-10T01:11:50.891Z,100428.16
2023-10-10T01:14:22.508Z,100428.00
2023-10-10T01:16:55.809Z,100432.25
2023-10-10T01:19:24.039Z,100436.50
2023-10-10T01:21:58.858Z,100433.78
2023-10-10T01:24:26.929Z,100433.78
2023-10-10T01:27:04.414Z,100422.63
2023-10-10T01:29:41.740Z,100419.94
2023-10-10T01:32:11.904Z,100425.06
2023-10-10T01:34:44.959Z,100427.56
2023-10-10T01:37:21.635Z,100419.78
2023-10-10T01:40:07.095Z,100423.13
2023-10-10T01:42:38.546Z,100420.50
2023-10-10T01:45:10.398Z,100421.16
2023-10-10T01:47:40.824Z,100419.38
2023-10-10T01:50:13.715Z,100416.72
2023-10-10T01:52:47.078Z,100416.69
2023-10-10T01:55:17.645Z,100422.47
2023-10-10T01:57:45.388Z,100415.56
2023-10-10T02:00:21.643Z,100412.94
2023-10-10T02:02:51.045Z,100406.84
2023-10-10T02:05:31.692Z,100412.00
2023-10-10T02:08:01.854Z,100410.25
2023-10-10T02:10:31.195Z,100411.97
2023-10-10T02:13:01.249Z,100404.94
2023-10-10T02:15:33.380Z,100407.56
2023-10-10T02:18:05.944Z,100404.09
2023-10-10T02:20:50.796Z,100404.94
2023-10-10T02:23:32.389Z,100396.22
2023-10-10T02:26:04.659Z,100404.75
2023-10-10T02:28:48.521Z,100403.00
2023-10-10T02:31:17.621Z,100406.34
2023-10-10T02:34:03.333Z,100411.44
2023-10-10T02:36:35.921Z,100414.88
2023-10-10T02:39:20.256Z,100417.38
2023-10-10T02:41:52.934Z,100411.28
2023-10-10T02:44:47.418Z,100409.59
2023-10-10T02:47:15.669Z,100412.94
2023-10-10T02:49:43.709Z,100407.59
2023-10-10T02:52:15.418Z,100410.09
2023-10-10T02:54:55.085Z,100406.53
2023-10-10T02:57:35.369Z,100405.59
2023-10-10T03:02:59.764Z,100401.13
2023-10-10T03:05:40.361Z,100398.59
2023-10-10T03:08:15.860Z,100398.59
2023-10-10T03:10:47.831Z,100397.78
2023-10-10T03:13:29.413Z,100401.03
2023-10-10T03:16:13.657Z,100400.13
2023-10-10T03:19:03.536Z,100405.25
2023-10-10T03:21:46.076Z,100401.75
2023-10-10T03:24:16.638Z,100406.84
2023-10-10T03:27:01.112Z,100405.00
2023-10-10T03:29:38.592Z,100413.56
2023-10-10T03:32:32.544Z,100408.47
2023-10-10T03:35:07.477Z,100411.88
2023-10-10T03:37:42.592Z,100405.84
2023-10-10T03:40:22.867Z,100410.16
2023-10-10T03:43:07.986Z,100408.47
2023-10-10T03:45:53.587Z,100411.88
2023-10-10T03:48:41.224Z,100413.63
2023-10-10T03:51:28.753Z,100421.28
2023-10-10T03:54:15.566Z,100412.72
2023-10-10T03:57:01.042Z,100414.34
2023-10-10T03:59:55.920Z,100415.19
2023-10-10T04:02:41.682Z,100410.84
2023-10-10T04:05:28.351Z,100416.78
2023-10-10T04:08:15.146Z,100418.44
2023-10-10T04:11:05.459Z,100421.03
2023-10-10T04:13:50.604Z,100410.53
2023-10-10T04:16:36.223Z,100417.41
2023-10-10T04:19:21.394Z,100419.94
2023-10-10T04:22:06.876Z,100418.97
2023-10-10T04:24:53.511Z,100426.75
2023-10-10T04:27:38.865Z,100420.72
2023-10-10T04:30:25.234Z,100423.19
2023-10-10T04:33:10.767Z,100424.03
2023-10-10T04:36:10.435Z,100428.31
2023-10-10T04:38:55.599Z,100419.59
2023-10-10T04:41:42.226Z,100420.41
2023-10-10T04:44:27.567Z,100416.09
2023-10-10T04:47:12.881Z,100422.16
2023-10-10T04:49:58.217Z,100415.13
2023-10-10T04:52:43.685Z,100414.81
2023-10-10T04:55:28.862Z,100413.66
2023-10-10T04:58:15.364Z,100410.16
2023-10-10T05:01:00.814Z,100411.94
2023-10-10T05:03:46.257Z,100412.03
2023-10-10T05:06:32.995Z,100410.28
2023-10-10T05:09:19.341Z,100408.44
2023-10-10T05:12:04.773Z,100406.59
2023-10-10T05:14:51.410Z,100409.22
2023-10-10T05:17:36.834Z,100411.00
2023-10-10T05:20:22.590Z,100415.16
2023-10-10T05:23:09.778Z,100408.25
2023-10-10T05:25:38.706Z,100408.31
2023-10-10T05:28:06.806Z,100405.72
2023-10-10T05:30:44.087Z,100408.44
2023-10-10T05:33:13.881Z,100397.97
2023-10-10T05:35:44.817Z,100405.00
2023-10-10T05:38:12.577Z,100410.91
2023-10-10T05:40:40.372Z,100409.91
2023-10-10T05:43:10.823Z,100414.97
2023-10-10T05:45:40.333Z,100420.00
2023-10-10T05:48:08.052Z,100422.84
2023-10-10T05:50:35.798Z,100426.34
2023-10-10T05:53:04.960Z,100427.50
2023-10-10T05:55:34.806Z,100427.69
2023-10-10T05:58:03.452Z,100432.81
2023-10-10T06:00:37.338Z,100436.22
2023-10-10T06:03:07.418Z,100429.34
2023-10-10T06:05:35.274Z,100429.34
2023-10-10T06:08:03.587Z,100438.78
2023-10-10T06:10:33.929Z,100441.38
2023-10-10T06:13:04.928Z,100439.66
2023-10-10T06:15:34.798Z,100437.16
2023-10-10T06:18:12.925Z,100443.22
2023-10-10T06:20:58.220Z,100451.97
2023-10-10T06:23:34.004Z,100450.50
2023-10-10T06:26:02.091Z,100452.16
2023-10-10T06:28:36.130Z,100454.94
2023-10-10T06:31:11.212Z,100460.97
2023-10-10T06:33:42.020Z,100457.63
2023-10-10T06:36:30.722Z,100468.94
2023-10-10T06:39:16.107Z,100464.56
2023-10-10T06:41:48.534Z,100457.78
2023-10-10T06:44:19.448Z,100449.03
2023-10-10T06:46:49.549Z,100453.53
2023-10-10T06:49:19.404Z,100453.81
2023-10-10T06:51:50.667Z,100458.28
2023-10-10T06:54:28.479Z,100458.72
2023-10-10T06:57:05.871Z,100458.28
2023-10-10T06:59:36.577Z,100461.28
2023-10-10T07:02:20.951Z,100472.78
2023-10-10T07:04:53.720Z,100469.63
2023-10-10T07:07:27.475Z,100471.72
2023-10-10T07:09:59.273Z,100462.56
2023-10-10T07:12:29.864Z,100469.47
2023-10-10T07:14:58.316Z,100463.72
2023-10-10T07:17:29.108Z,100468.34
2023-10-10T07:20:14.253Z,100472.06
2023-10-10T07:22:45.002Z,100468.91
2023-10-10T07:25:19.593Z,100472.66
2023-10-10T07:27:47.343Z,100477.06
2023-10-10T07:30:18.588Z,100478.09
2023-10-10T07:32:49.436Z,100479.31
2023-10-10T07:35:17.709Z,100484.72
2023-10-10T07:37:47.590Z,100488.50
2023-10-10T07:40:21.304Z,100479.16
2023-10-10T07:42:52.174Z,100486.34
2023-10-10T07:45:28.839Z,100491.72
2023-10-10T07:48:14.437Z,100497.03
2023-10-10T07:50:49.733Z,100485.16
2023-10-10T07:53:19.514Z,100490.59
2023-10-10T07:55:55.015Z,100496.09
2023-10-10T07:58:33.879Z,100489.47
2023-10-10T08:01:11.178Z,100487.06
2023-10-10T08:03:45.188Z,100488.97
2023-10-10T08:06:17.903Z,100494.34
2023-10-10T08:08:49.906Z,100487.66
2023-10-10T08:11:28.547Z,100483.56
2023-10-10T08:13:56.666Z,100489.91
2023-10-10T08:16:27.364Z,100482.28
2023-10-10T08:18:55.047Z,100485.16
2023-10-10T08:21:25.824Z,100485.34
2023-10-10T08:23:59.241Z,100477.81
2023-10-10T08:26:30.835Z,100476.25
2023-10-10T08:28:58.587Z,100479.03
2023-10-10T08:31:26.268Z,100469.69
2023-10-10T08:33:53.889Z,100480.25
2023-10-10T08:36:25.337Z,100476.91
2023-10-10T08:38:55.374Z,100469.25
2023-10-10T08:41:26.330Z,100472.81
2023-10-10T08:43:59.079Z,100472.06
2023-10-10T08:46:30.991Z,100464.31
2023-10-10T08:49:00.459Z,100467.00
2023-10-10T08:54:04.133Z,100460.16
2023-10-10T08:56:38.647Z,100474.97
2023-10-10T08:59:07.313Z,100461.91
2023-10-10T09:01:37.114Z,100468.88
2023-10-10T09:04:06.479Z,100461.06
2023-10-10T09:06:45.555Z,100467.16
2023-10-10T09:09:32.293Z,100471.47
2023-10-10T09:12:03.616Z,100461.00
2023-10-10T09:14:40.628Z,100462.69
2023-10-10T09:17:10.024Z,100467.88
2023-10-10T09:19:48.716Z,100466.06
2023-10-10T09:22:29.959Z,100458.13
2023-10-10T09:25:00.831Z,100451.09
2023-10-10T09:27:29.981Z,100455.41
2023-10-10T09:29:59.041Z,100453.56
2023-10-10T09:32:37.389Z,100461.25
2023-10-10T09:35:07.952Z,100461.09
2023-10-10T09:37:39.706Z,100452.22
2023-10-10T09:40:17.749Z,100470.34
2023-10-10T09:42:54.973Z,100466.22
2023-10-10T09:45:37.101Z,100462.59
2023-10-10T09:48:08.050Z,100462.59
2023-10-10T09:50:46.867Z,100464.16
2023-10-10T09:53:24.297Z,100462.28
2023-10-10T09:56:02.546Z,100469.19
2023-10-10T09:58:31.210Z,100463.88
2023-10-10T10:01:15.509Z,100468.34
2023-10-10T10:03:56.248Z,100469.03
2023-10-10T10:06:49.042Z,100470.84
2023-10-10T10:09:39.501Z,100476.69
2023-10-10T10:12:31.970Z,100470.50
2023-10-10T10:15:16.603Z,100475.66
2023-10-10T10:17:56.322Z,100470.88
2023-10-10T10:20:35.156Z,100477.50
2023-10-10T10:23:03.000Z,100485.59
2023-10-10T10:25:34.685Z,100477.66
2023-10-10T10:28:12.606Z,100474.88
2023-10-10T10:30:51.653Z,100471.16
2023-10-10T10:33:23.897Z,100469.44
2023-10-10T10:36:15.676Z,100479.44
2023-10-10T10:39:07.959Z,100478.25
2023-10-10T10:41:43.768Z,100484.84
2023-10-10T10:44:29.641Z,100478.69
2023-10-10T10:46:58.880Z,100481.50
2023-10-10T10:49:29.491Z,100469.63
2023-10-10T10:52:11.177Z,100467.91
2023-10-10T10:54:39.239Z,100466.84
2023-10-10T10:57:07.221Z,100462.94
2023-10-10T10:59:40.086Z,100461.28
2023-10-10T11:02:16.690Z,100457.59
2023-10-10T11:04:51.257Z,100463.00
2023-10-10T11:07:30.981Z,100463.28
2023-10-10T11:10:08.760Z,100456.84
2023-10-10T11:12:38.296Z,100445.56
2023-10-10T11:15:11.951Z,100443.16
2023-10-10T11:17:46.279Z,100443.94
2023-10-10T11:20:30.437Z,100441.91
2023-10-10T11:23:13.174Z,100441.25
2023-10-10T11:25:47.723Z,100430.97
2023-10-10T11:28:23.166Z,100430.78
2023-10-10T11:30:53.861Z,100427.13
2023-10-10T11:33:49.880Z,100421.78
2023-10-10T11:36:30.318Z,100417.03
2023-10-10T11:39:16.706Z,100413.22
2023-10-10T11:41:46.508Z,100414.00
2023-10-10T11:44:20.810Z,100413.88
2023-10-10T11:46:50.940Z,100414.00
2023-10-10T11:49:18.672Z,100406.31
2023-10-10T11:51:47.860Z,100398.97
2023-10-10T11:54:15.791Z,100396.97
2023-10-10T11:56:47.333Z,100394.56
2023-10-10T11:59:18.262Z,100392.50
2023-10-10T12:01:53.074Z,100390.97
2023-10-10T12:04:39.015Z,100385.34
2023-10-10T12:07:07.430Z,100379.00
2023-10-10T12:09:35.616Z,100376.06
2023-10-10T12:12:04.778Z,100373.25
2023-10-10T12:14:33.216Z,100366.00
2023-10-10T12:17:06.615Z,100373.13
2023-10-10T12:19:44.578Z,100383.34
2023-10-10T12:22:13.340Z,100362.66
2023-10-10T12:24:41.639Z,100361.78
2023-10-10T12:27:10.152Z,100359.06
2023-10-10T12:29:40.921Z,100360.72
2023-10-10T12:32:17.296Z,100348.75
2023-10-10T12:34:47.891Z,100347.59
2023-10-10T12:37:17.378Z,100340.16
2023-10-10T12:39:45.570Z,100343.09
2023-10-10T12:42:13.709Z,100343.44
2023-10-10T12:44:41.387Z,100338.59
2023-10-10T12:47:09.373Z,100335.31
2023-10-10T12:49:45.259Z,100340.13
2023-10-10T12:52:14.352Z,100333.84
2023-10-10T12:54:43.557Z,100333.47
2023-10-10T12:57:15.611Z,100334.34
2023-10-10T12:59:47.440Z,100331.06
2023-10-10T13:02:17.665Z,100328.34
2023-10-10T13:04:48.541Z,100327.91
2023-10-10T13:07:19.198Z,100324.72
2023-10-10T13:09:47.839Z,100320.81
2023-10-10T13:12:28.832Z,100327.94
2023-10-10T13:15:17.509Z,100327.84
2023-10-10T13:17:54.452Z,100316.38
2023-10-10T13:20:23.684Z,100322.91
2023-10-10T13:22:52.868Z,100327.19
2023-10-10T13:25:23.199Z,100334.69
2023-10-10T13:27:53.259Z,100322.56
2023-10-10T13:30:20.989Z,100318.72
2023-10-10T13:32:48.658Z,100319.75
2023-10-10T13:35:16.520Z,100326.03
2023-10-10T13:37:44.948Z,100322.13
2023-10-10T13:40:22.652Z,100323.28
2023-10-10T13:42:50.665Z,100308.13
2023-10-10T13:45:23.373Z,100319.34
2023-10-10T13:47:51.368Z,100320.69
2023-10-10T13:50:32.606Z,100318.97
2023-10-10T13:53:01.445Z,100320.75
2023-10-10T13:55:35.173Z,100310.19
2023-10-10T13:58:02.840Z,100312.69
2023-10-10T14:00:34.442Z,100310.38
2023-10-10T14:03:05.203Z,100300.72
2023-10-10T14:05:35.668Z,100310.00
2023-10-10T14:08:07.426Z,100303.59
2023-10-10T14:10:42.954Z,100308.78
2023-10-10T14:13:20.910Z,100296.78
2023-10-10T14:15:57.258Z,100290.44
2023-10-10T14:18:27.161Z,100301.06
2023-10-10T14:20:55.423Z,100300.69
2023-10-10T14:23:24.971Z,100298.13
2023-10-10T14:26:04.347Z,100294.50
2023-10-10T14:28:33.361Z,100295.88
2023-10-10T14:31:01.264Z,100293.28
2023-10-10T14:33:29.015Z,100298.44
2023-10-10T14:35:56.915Z,100291.47
2023-10-10T14:38:24.544Z,100286.16
2023-10-10T14:40:52.165Z,100293.19
2023-10-10T14:43:21.162Z,100288.56
2023-10-10T14:45:50.126Z,100287.81
2023-10-10T14:48:20.473Z,100286.69
2023-10-10T14:50:53.638Z,100285.00
2023-10-10T14:53:23.542Z,100288.91
2023-10-10T14:55:52.738Z,100280.38
2023-10-10T14:58:23.772Z,100275.16
2023-10-10T15:00:53.868Z,100281.31
2023-10-10T15:03:23.796Z,100273.47
2023-10-10T15:05:52.188Z,100274.53
2023-10-10T15:08:21.318Z,100270.81
2023-10-10T15:10:52.505Z,100276.03
2023-10-10T15:13:23.239Z,100274.94
2023-10-10T15:15:50.852Z,100269.22
2023-10-10T15:18:19.349Z,100276.53
2023-10-10T15:20:49.873Z,100273.06
2023-10-10T15:23:21.415Z,100271.84
2023-10-10T15:25:54.737Z,100272.81
2023-10-10T15:28:25.785Z,100276.38
2023-10-10T15:30:53.500Z,100273.63
2023-10-10T15:33:23.381Z,100278.00
2023-10-10T15:35:53.599Z,100270.50
2023-10-10T15:38:24.028Z,100274.84
2023-10-10T15:40:53.283Z,100277.34
2023-10-10T15:43:32.150Z,100278.19
2023-10-10T15:46:08.026Z,100276.91
2023-10-10T15:48:43.520Z,100276.94
2023-10-10T15:51:15.773Z,100278.50
2023-10-10T15:53:44.390Z,100267.66
2023-10-10T15:56:16.876Z,100275.69
2023-10-10T15:58:50.832Z,100273.25
2023-10-10T16:01:28.943Z,100275.28
2023-10-10T16:04:01.242Z,100271.50
2023-10-10T16:06:31.089Z,100279.50
2023-10-10T16:08:59.912Z,100274.16
2023-10-10T16:11:32.677Z,100278.47
2023-10-10T16:14:00.801Z,100272.94
2023-10-10T16:16:31.158Z,100273.16
2023-10-10T16:18:58.889Z,100267.72
2023-10-10T16:21:27.270Z,100268.88
2023-10-10T16:23:55.917Z,100266.81
2023-10-10T16:26:24.065Z,100269.22
2023-10-10T16:28:51.680Z,100269.00
2023-10-10T16:31:21.373Z,100271.91
2023-10-10T16:33:50.759Z,100270.78
2023-10-10T16:36:19.145Z,100275.63
2023-10-10T16:38:50.774Z,100263.28
2023-10-10T16:41:19.752Z,100269.94
2023-10-10T16:44:00.451Z,100269.63
2023-10-10T16:46:32.248Z,100278.84
2023-10-10T16:49:01.454Z,100273.06
2023-10-10T16:51:32.859Z,100282.16
2023-10-10T16:54:01.252Z,100270.16
2023-10-10T16:56:28.934Z,100267.91
2023-10-10T16:58:56.524Z,100271.53
2023-10-10T17:01:24.201Z,100267.41
2023-10-10T17:03:55.537Z,100269.25
2023-10-10T17:06:26.357Z,100266.81
2023-10-10T17:08:55.506Z,100276.44
2023-10-10T17:11:24.382Z,100276.50
2023-10-10T17:13:53.960Z,100271.41
2023-10-10T17:16:29.531Z,100284.53
2023-10-10T17:19:22.791Z,100273.25
2023-10-10T17:21:48.305Z,100285.47
2023-10-10T17:24:19.719Z,100281.16
2023-10-10T17:26:47.426Z,100281.19
2023-10-10T17:29:15.448Z,100286.41
2023-10-10T17:31:43.846Z,100277.75
2023-10-10T17:34:16.583Z,100278.63
2023-10-10T17:36:44.753Z,100278.63
2023-10-10T17:39:16.838Z,100282.97
2023-10-10T17:41:48.769Z,100276.94
2023-10-10T17:44:18.116Z,100275.19
2023-10-10T17:46:47.714Z,100276.06
2023-10-10T17:49:16.111Z,100276.88
2023-10-10T17:51:45.735Z,100291.63
2023-10-10T17:54:16.835Z,100291.59
2023-10-10T17:56:45.786Z,100282.94
2023-10-10T17:59:13.922Z,100288.13
2023-10-10T18:01:42.878Z,100284.63
2023-10-10T18:04:10.989Z,100294.19
2023-10-10T18:06:38.779Z,100286.38
2023-10-10T18:09:09.122Z,100297.59
2023-10-10T18:11:39.165Z,100289.81
2023-10-10T18:14:08.097Z,100293.25
2023-10-10T18:16:36.659Z,100290.66
2023-10-10T18:19:14.494Z,100301.91
2023-10-10T18:21:42.968Z,100303.66
2023-10-10T18:24:12.634Z,100301.91
2023-10-10T18:26:41.851Z,100301.00
2023-10-10T18:29:09.956Z,100299.25
2023-10-10T18:31:39.396Z,100309.63
2023-10-10T18:34:07.771Z,100307.00
2023-10-10T18:36:38.178Z,100306.09
2023-10-10T18:39:13.323Z,100306.97
2023-10-10T18:41:43.634Z,100301.69
2023-10-10T18:44:12.964Z,100306.88
2023-10-10T18:46:44.194Z,100303.38
2023-10-10T18:49:12.134Z,100300.75
2023-10-10T18:51:39.733Z,100303.28
2023-10-10T18:54:09.329Z,100310.19
2023-10-10T18:56:39.085Z,100304.94
2023-10-10T18:59:08.582Z,100306.63
2023-10-10T19:01:38.799Z,100303.16
2023-10-10T19:04:08.386Z,100305.72
2023-10-10T19:06:39.834Z,100307.44
2023-10-10T19:09:12.210Z,100302.19
2023-10-10T19:11:40.034Z,100307.31
2023-10-10T19:14:10.701Z,100302.06
2023-10-10T19:16:38.651Z,100302.88
2023-10-10T19:19:06.849Z,100299.38
2023-10-10T19:21:34.566Z,100292.41
2023-10-10T19:24:02.756Z,100292.38
2023-10-10T19:26:30.867Z,100296.69
2023-10-10T19:28:58.660Z,100301.00
2023-10-10T19:31:27.948Z,100297.47
2023-10-10T19:33:55.967Z,100300.78
2023-10-10T19:36:23.695Z,100300.78
2023-10-10T19:38:51.366Z,100294.69
2023-10-10T19:41:19.760Z,100304.16
2023-10-10T19:43:52.281Z,100305.81
2023-10-10T19:46:21.390Z,100300.63
2023-10-10T19:48:52.102Z,100299.75
2023-10-10T19:51:21.067Z,100295.34
2023-10-10T19:53:51.059Z,100294.34
2023-10-10T19:56:19.438Z,100296.94
2023-10-10T19:58:47.525Z,100300.38
2023-10-10T20:01:16.953Z,100295.09
2023-10-10T20:03:45.213Z,100297.63
2023-10-10T20:06:21.075Z,100299.34
2023-10-10T20:08:50.177Z,100294.97
2023-10-10T20:11:18.023Z,100294.03
2023-10-10T20:13:46.508Z,100294.03
2023-10-10T20:16:15.604Z,100289.66
2023-10-10T20:18:45.209Z,100295.63
2023-10-10T20:21:13.712Z,100297.34
2023-10-10T20:23:43.745Z,100297.28
2023-10-10T20:26:15.917Z,100305.81
2023-10-10T20:28:45.646Z,100303.19
2023-10-10T20:31:14.257Z,100302.28
2023-10-10T20:33:42.474Z,100301.41
2023-10-10T20:36:14.432Z,100302.19
2023-10-10T20:38:44.028Z,100296.09
2023-10-10T20:41:13.028Z,100295.09
2023-10-10T20:43:41.299Z,100290.78
2023-10-10T20:46:09.416Z,100286.38
2023-10-10T20:48:37.333Z,100288.03
2023-10-10T20:51:05.424Z,100287.09
2023-10-10T20:53:33.302Z,100281.88
2023-10-10T20:56:03.671Z,100274.09
2023-10-10T20:58:35.101Z,100281.75
2023-10-10T21:01:03.637Z,100273.06
2023-10-10T21:03:31.662Z,100276.44
2023-10-10T21:05:59.475Z,100277.28
2023-10-10T21:08:27.194Z,100276.38
2023-10-10T21:10:55.017Z,100282.38
2023-10-10T21:13:24.762Z,100277.13
2023-10-10T21:15:53.090Z,100276.28
2023-10-10T21:18:21.648Z,100278.00
2023-10-10T21:21:00.809Z,100270.22
2023-10-10T21:23:32.411Z,100272.75
2023-10-10T21:26:00.180Z,100264.97
2023-10-10T21:28:29.134Z,100261.53
2023-10-10T21:30:56.809Z,100267.56
2023-10-10T21:33:24.877Z,100267.56
2023-10-10T21:35:52.866Z,100265.75
2023-10-10T21:38:21.724Z,100264.09
2023-10-10T21:40:50.452Z,100265.75
2023-10-10T21:43:19.004Z,100267.47
2023-10-10T21:45:48.032Z,100263.16
2023-10-10T21:48:18.826Z,100262.28
2023-10-10T21:50:46.758Z,100257.13
2023-10-10T21:53:14.605Z,100261.44
2023-10-10T21:55:42.541Z,100265.72
2023-10-10T21:58:10.169Z,100260.56
2023-10-10T22:00:57.751Z,100257.19
2023-10-10T22:03:27.366Z,100255.47
2023-10-10T22:05:56.213Z,100265.81
2023-10-10T22:08:26.945Z,100257.19
2023-10-10T22:10:55.359Z,100263.19
2023-10-10T22:13:24.532Z,100255.41
2023-10-10T22:15:52.846Z,100257.13
2023-10-10T22:18:21.052Z,100244.19
2023-10-10T22:20:53.136Z,100241.53
2023-10-10T22:23:20.753Z,100243.31
2023-10-10T22:25:48.385Z,100247.53
2023-10-10T22:28:16.438Z,100244.81
2023-10-10T22:30:44.692Z,100231.00
2023-10-10T22:33:12.752Z,100239.59
2023-10-10T22:35:40.989Z,100238.75
2023-10-10T22:38:13.985Z,100243.06
2023-10-10T22:40:41.738Z,100239.50
2023-10-10T22:43:11.323Z,100230.91
2023-10-10T22:45:39.658Z,100233.41
2023-10-10T22:48:09.466Z,100232.53
2023-10-10T22:50:39.647Z,100223.88
2023-10-10T22:53:10.387Z,100227.28
2023-10-10T22:55:42.469Z,100222.91
2023-10-10T22:58:10.073Z,100222.03
2023-10-10T23:00:38.570Z,100218.50
2023-10-10T23:03:10.523Z,100216.75
2023-10-10T23:05:39.989Z,100218.47
2023-10-10T23:08:08.219Z,100226.16
2023-10-10T23:10:37.730Z,100227.91
2023-10-10T23:13:07.906Z,100228.75
2023-10-10T23:15:37.975Z,100221.84
2023-10-10T23:18:11.131Z,100217.47
2023-10-10T23:20:41.752Z,100215.75
2023-10-10T23:23:09.673Z,100216.59
2023-10-10T23:25:37.493Z,100221.66
2023-10-10T23:28:09.343Z,100218.19
2023-10-10T23:30:39.933Z,100224.19
2023-10-10T23:33:11.830Z,100218.13
2023-10-10T23:35:40.338Z,100215.56
2023-10-10T23:38:08.159Z,100224.88
2023-10-10T23:40:42.776Z,100223.16
2023-10-10T23:43:19.477Z,100221.28
2023-10-10T23:45:49.881Z,100223.81
2023-10-10T23:48:18.162Z,100225.44
2023-10-10T23:50:47.068Z,100221.97
2023-10-10T23:53:15.449Z,100224.41
2023-10-10T23:55:47.576Z,100220.88
2023-10-10T23:58:17.617Z,100219.97
